createdAt,value
2018-12-18T00:01:12.411Z,101601
2018-12-18T00:03:41.254Z,101602
2018-12-18T00:06:10.090Z,101603
2018-12-18T00:08:38.920Z,101592
2018-12-18T00:11:07.751Z,101595
2018-12-18T00:13:37.336Z,101589
2018-12-18T00:16:06.185Z,101592
2018-12-18T00:18:35.078Z,101586
2018-12-18T00:21:03.899Z,101595
2018-12-18T00:23:32.710Z,101582
2018-12-18T00:26:02.341Z,101579
2018-12-18T00:28:31.732Z,101577
2018-12-18T00:31:00.582Z,101582
2018-12-18T00:33:29.429Z,101574
2018-12-18T00:35:58.266Z,101566
2018-12-18T00:38:27.114Z,101568
2018-12-18T00:40:55.946Z,101568
2018-12-18T00:43:24.795Z,101571
2018-12-18T00:45:53.649Z,101569
2018-12-18T00:48:22.481Z,101564
2018-12-18T00:50:51.336Z,101557
2018-12-18T00:53:20.914Z,101555
2018-12-18T00:55:49.756Z,101555
2018-12-18T00:58:18.595Z,101553
2018-12-18T01:00:47.452Z,101556
2018-12-18T01:03:16.288Z,101563
2018-12-18T01:05:45.885Z,101559
2018-12-18T01:08:15.471Z,101566
2018-12-18T01:10:44.319Z,101569
2018-12-18T01:13:13.176Z,101569
2018-12-18T01:15:41.980Z,101570
2018-12-18T01:18:10.817Z,101566
2018-12-18T01:20:39.665Z,101570
2018-12-18T01:23:08.493Z,101570
2018-12-18T01:25:37.342Z,101561
2018-12-18T01:28:06.177Z,101566
2018-12-18T01:30:35.004Z,101568
2018-12-18T01:33:03.847Z,101562
2018-12-18T01:35:32.692Z,101566
2018-12-18T01:38:01.525Z,101565
2018-12-18T01:40:30.362Z,101558
2018-12-18T01:42:59.204Z,101558
2018-12-18T01:45:28.045Z,101557
2018-12-18T01:47:56.918Z,101559
2018-12-18T01:50:26.509Z,101560
2018-12-18T01:52:55.419Z,101564
2018-12-18T01:55:24.251Z,101556
2018-12-18T01:57:53.897Z,101574
2018-12-18T02:00:22.740Z,101552
2018-12-18T02:02:51.564Z,101549
2018-12-18T02:05:20.394Z,101541
2018-12-18T02:07:49.217Z,101543
2018-12-18T02:10:18.057Z,101539
2018-12-18T02:12:46.893Z,101542
2018-12-18T02:15:15.718Z,101535
2018-12-18T02:20:11.397Z,101547
2018-12-18T02:22:40.225Z,101544
2018-12-18T02:25:09.062Z,101545
2018-12-18T02:27:37.907Z,101545
2018-12-18T02:30:06.764Z,101548
2018-12-18T02:32:35.614Z,101539
2018-12-18T02:35:04.455Z,101537
2018-12-18T02:37:33.284Z,101540
2018-12-18T02:40:02.873Z,101529
2018-12-18T02:42:31.729Z,101526
2018-12-18T02:45:00.569Z,101527
2018-12-18T02:47:30.148Z,101522
2018-12-18T02:49:58.997Z,101525
2018-12-18T02:52:27.828Z,101516
2018-12-18T02:54:56.675Z,101522
2018-12-18T02:57:26.751Z,101513
2018-12-18T02:59:55.591Z,101518
2018-12-18T03:02:24.425Z,101509
2018-12-18T03:04:53.260Z,101513
2018-12-18T03:07:22.100Z,101510
2018-12-18T03:09:50.938Z,101505
2018-12-18T03:12:19.770Z,101520
2018-12-18T03:14:48.599Z,101508
2018-12-18T03:17:17.434Z,101515
2018-12-18T03:19:46.268Z,101519
2018-12-18T03:22:15.847Z,101517
2018-12-18T03:24:44.693Z,101519
2018-12-18T03:27:13.526Z,101524
2018-12-18T03:29:42.357Z,101534
2018-12-18T03:32:11.221Z,101521
2018-12-18T03:34:40.047Z,101520
2018-12-18T03:37:08.878Z,101519
2018-12-18T03:39:37.705Z,101520
2018-12-18T03:42:06.537Z,101518
2018-12-18T03:44:35.377Z,101521
2018-12-18T03:47:04.951Z,101523
2018-12-18T03:49:33.787Z,101520
2018-12-18T03:52:02.621Z,101518
2018-12-18T03:54:31.443Z,101510
2018-12-18T03:57:00.266Z,101513
2018-12-18T03:59:29.092Z,101512
2018-12-18T04:01:57.929Z,101506
2018-12-18T04:04:26.774Z,101505
2018-12-18T04:06:55.639Z,101510
2018-12-18T04:09:24.457Z,101521
2018-12-18T04:11:58.760Z,101521
2018-12-18T04:14:27.795Z,101524
2018-12-18T04:16:56.447Z,101530
2018-12-18T04:19:25.275Z,101518
2018-12-18T04:21:54.103Z,101521
2018-12-18T04:24:22.944Z,101530
2018-12-18T04:26:52.509Z,101525
2018-12-18T04:29:21.419Z,101526
2018-12-18T04:31:50.995Z,101514
2018-12-18T04:34:19.832Z,101518
2018-12-18T04:36:49.412Z,101516
2018-12-18T04:39:18.254Z,101523
2018-12-18T04:41:47.094Z,101523
2018-12-18T04:44:16.515Z,101522
2018-12-18T04:46:45.361Z,101525
2018-12-18T04:49:14.197Z,101517
2018-12-18T04:51:43.790Z,101507
2018-12-18T04:54:12.619Z,101508
2018-12-18T04:56:41.454Z,101503
2018-12-18T04:59:10.293Z,101506
2018-12-18T05:01:39.154Z,101497
2018-12-18T05:04:07.991Z,101494
2018-12-18T05:06:36.824Z,101495
2018-12-18T05:09:05.682Z,101497
2018-12-18T05:11:34.513Z,101494
2018-12-18T05:14:04.090Z,101492
2018-12-18T05:16:32.920Z,101493
2018-12-18T05:19:01.749Z,101499
2018-12-18T05:21:30.596Z,101504
2018-12-18T05:23:59.431Z,101500
2018-12-18T05:26:28.268Z,101500
2018-12-18T05:28:57.836Z,101505
2018-12-18T05:31:26.668Z,101547
2018-12-18T05:33:55.500Z,101513
2018-12-18T05:36:25.904Z,101519
2018-12-18T05:38:53.178Z,101511
2018-12-18T05:41:22.008Z,101518
2018-12-18T05:43:51.591Z,101516
2018-12-18T05:46:20.422Z,101530
2018-12-18T05:48:49.284Z,101528
2018-12-18T05:51:18.124Z,101531
2018-12-18T05:53:46.994Z,101527
2018-12-18T05:56:15.808Z,101540
2018-12-18T05:58:44.655Z,101527
2018-12-18T06:01:13.564Z,101522
2018-12-18T06:03:43.155Z,101522
2018-12-18T06:06:11.995Z,101524
2018-12-18T06:08:40.846Z,101522
2018-12-18T06:11:10.438Z,101513
2018-12-18T06:13:39.291Z,101510
2018-12-18T06:16:08.880Z,101515
2018-12-18T06:18:37.759Z,101503
2018-12-18T06:21:06.606Z,101513
2018-12-18T06:23:35.449Z,101516
2018-12-18T06:26:04.298Z,101502
2018-12-18T06:28:33.151Z,101507
2018-12-18T06:31:02.002Z,101514
2018-12-18T06:33:30.840Z,101509
2018-12-18T06:35:59.677Z,101509
2018-12-18T06:38:28.524Z,101506
2018-12-18T06:40:57.360Z,101515
2018-12-18T06:43:26.200Z,101518
2018-12-18T06:45:55.036Z,101520
2018-12-18T06:48:23.951Z,101518
2018-12-18T06:50:52.727Z,101531
2018-12-18T06:53:21.558Z,101515
2018-12-18T06:55:50.390Z,101512
2018-12-18T06:58:19.245Z,101503
2018-12-18T07:00:48.127Z,101500
2018-12-18T07:03:16.956Z,101496
2018-12-18T07:05:45.812Z,101496
2018-12-18T07:08:14.648Z,101494
2018-12-18T07:10:43.547Z,101496
2018-12-18T07:13:12.334Z,101494
2018-12-18T07:15:41.182Z,101496
2018-12-18T07:18:10.774Z,101493
2018-12-18T07:20:39.611Z,101492
2018-12-18T07:23:08.452Z,101495
2018-12-18T07:25:37.286Z,101499
2018-12-18T07:28:06.142Z,101507
2018-12-18T07:30:35.002Z,101501
2018-12-18T07:33:03.845Z,101496
2018-12-18T07:35:32.684Z,101496
2018-12-18T07:38:01.530Z,101499
2018-12-18T07:40:30.379Z,101502
2018-12-18T07:42:59.199Z,101503
2018-12-18T07:45:28.080Z,101508
2018-12-18T07:47:56.898Z,101510
2018-12-18T07:50:25.744Z,101509
2018-12-18T07:52:54.597Z,101516
2018-12-18T07:55:23.430Z,101506
2018-12-18T07:57:53.012Z,101501
2018-12-18T08:00:21.855Z,101501
2018-12-18T08:02:50.703Z,101493
2018-12-18T08:05:19.551Z,101492
2018-12-18T08:07:48.400Z,101496
2018-12-18T08:10:17.983Z,101494
2018-12-18T08:12:46.824Z,101494
2018-12-18T08:15:15.658Z,101501
2018-12-18T08:17:44.499Z,101504
2018-12-18T08:20:13.319Z,101500
2018-12-18T08:22:42.165Z,101507
2018-12-18T08:25:11.001Z,101503
2018-12-18T08:27:39.858Z,101501
2018-12-18T08:30:08.691Z,101503
2018-12-18T08:32:37.542Z,101506
2018-12-18T08:35:06.375Z,101499
2018-12-18T08:37:35.212Z,101484
2018-12-18T08:40:04.064Z,101484
2018-12-18T08:42:32.919Z,101478
2018-12-18T08:45:01.769Z,101473
2018-12-18T08:47:30.625Z,101473
2018-12-18T08:49:59.464Z,101475
2018-12-18T08:52:28.298Z,101464
2018-12-18T08:54:57.155Z,101460
2018-12-18T08:57:25.998Z,101455
2018-12-18T08:59:54.848Z,101459
2018-12-18T09:02:23.728Z,101472
2018-12-18T09:04:52.530Z,101459
2018-12-18T09:07:21.358Z,101447
2018-12-18T09:09:49.441Z,101451
2018-12-18T09:12:18.280Z,101442
2018-12-18T09:14:52.747Z,101445
2018-12-18T09:17:21.589Z,101445
2018-12-18T09:19:50.422Z,101436
2018-12-18T09:22:19.287Z,101441
2018-12-18T09:24:48.149Z,101433
2018-12-18T09:27:16.988Z,101434
2018-12-18T09:29:45.957Z,101441
2018-12-18T09:32:14.795Z,101444
2018-12-18T09:34:43.625Z,101436
2018-12-18T09:37:12.477Z,101427
2018-12-18T09:39:41.336Z,101423
2018-12-18T09:42:16.489Z,101425
2018-12-18T09:44:45.337Z,101418
2018-12-18T09:47:14.937Z,101408
2018-12-18T09:49:43.803Z,101415
2018-12-18T09:52:12.653Z,101415
2018-12-18T09:54:41.513Z,101416
2018-12-18T09:57:10.344Z,101414
2018-12-18T09:59:39.187Z,101395
2018-12-18T10:02:08.047Z,101400
2018-12-18T10:04:36.892Z,101393
2018-12-18T10:07:05.735Z,101382
2018-12-18T10:09:34.575Z,101367
2018-12-18T10:12:04.722Z,101351
2018-12-18T10:14:32.252Z,101345
2018-12-18T10:17:01.092Z,101338
2018-12-18T10:19:29.930Z,101331
2018-12-18T10:21:58.815Z,101337
2018-12-18T10:24:27.637Z,101340
2018-12-18T10:26:56.478Z,101332
2018-12-18T10:29:26.065Z,101331
2018-12-18T10:31:54.926Z,101325
2018-12-18T10:34:23.767Z,101326
2018-12-18T10:36:53.348Z,101305
2018-12-18T10:39:22.184Z,101300
2018-12-18T10:41:51.032Z,101295
2018-12-18T10:44:19.899Z,101294
2018-12-18T10:46:48.728Z,101281
2018-12-18T10:49:17.572Z,101282
2018-12-18T10:51:46.413Z,101285
2018-12-18T10:54:15.274Z,101288
2018-12-18T10:56:44.131Z,101280
2018-12-18T10:59:12.977Z,101278
2018-12-18T11:01:47.451Z,101271
2018-12-18T11:04:16.292Z,101264
2018-12-18T11:06:45.143Z,101258
2018-12-18T11:09:13.998Z,101259
2018-12-18T11:11:42.851Z,101247
2018-12-18T11:14:12.422Z,101254
2018-12-18T11:16:41.257Z,101255
2018-12-18T11:19:10.851Z,101240
2018-12-18T11:21:40.429Z,101239
2018-12-18T11:24:09.281Z,101232
2018-12-18T11:26:38.111Z,101236
2018-12-18T11:29:06.947Z,101230
2018-12-18T11:31:35.794Z,101231
2018-12-18T11:34:04.633Z,101225
2018-12-18T11:36:33.482Z,101212
2018-12-18T11:39:02.344Z,101203
2018-12-18T11:41:31.185Z,101194
2018-12-18T11:44:00.035Z,101182
2018-12-18T11:46:29.603Z,101175
2018-12-18T11:48:58.448Z,101174
2018-12-18T11:51:28.029Z,101172
2018-12-18T11:53:56.856Z,101169
2018-12-18T11:56:25.694Z,101159
2018-12-18T11:58:54.532Z,101163
2018-12-18T12:01:23.395Z,101158
2018-12-18T12:03:52.218Z,101147
2018-12-18T12:06:23.100Z,101142
2018-12-18T12:08:50.655Z,101141
2018-12-18T12:11:19.485Z,101132
2018-12-18T12:13:48.325Z,101130
2018-12-18T12:16:17.168Z,101126
2018-12-18T12:18:46.009Z,101117
2018-12-18T12:21:14.843Z,101118
2018-12-18T12:23:43.685Z,101125
2018-12-18T12:26:18.077Z,101121
2018-12-18T12:28:46.919Z,101116
2018-12-18T12:31:15.750Z,101118
2018-12-18T12:33:44.603Z,101119
2018-12-18T12:36:13.428Z,101102
2018-12-18T12:38:43.005Z,101107
2018-12-18T12:41:11.841Z,101106
2018-12-18T12:43:40.696Z,101092
2018-12-18T12:46:09.536Z,101090
2018-12-18T12:48:43.999Z,101091
2018-12-18T12:51:12.829Z,101078
2018-12-18T12:53:41.704Z,101051
2018-12-18T12:56:11.269Z,101068
2018-12-18T12:58:40.101Z,101067
2018-12-18T13:01:09.030Z,101062
2018-12-18T13:03:37.766Z,101054
2018-12-18T13:06:07.342Z,101057
2018-12-18T13:08:36.194Z,101050
2018-12-18T13:11:05.036Z,101045
2018-12-18T13:13:33.935Z,101041
2018-12-18T13:16:02.797Z,101017
2018-12-18T13:18:31.623Z,101032
2018-12-18T13:21:01.194Z,101023
2018-12-18T13:23:30.023Z,101019
2018-12-18T13:25:58.868Z,101011
2018-12-18T13:28:27.701Z,101012
2018-12-18T13:30:56.547Z,101011
2018-12-18T13:33:25.380Z,101002
2018-12-18T13:35:54.968Z,101007
2018-12-18T13:38:23.795Z,101000
2018-12-18T13:40:52.635Z,101002
2018-12-18T13:43:21.471Z,100996
2018-12-18T13:45:50.332Z,100989
2018-12-18T13:48:19.935Z,100984
2018-12-18T13:50:49.525Z,100985
2018-12-18T13:53:18.367Z,100980
2018-12-18T13:55:47.203Z,100982
2018-12-18T13:58:16.029Z,100975
2018-12-18T14:00:44.875Z,100970
2018-12-18T14:03:13.712Z,100970
2018-12-18T14:05:42.547Z,100951
2018-12-18T14:08:11.391Z,100955
2018-12-18T14:10:40.225Z,100946
2018-12-18T14:13:09.049Z,100950
2018-12-18T14:15:38.631Z,100942
2018-12-18T14:18:07.482Z,100943
2018-12-18T14:20:36.357Z,100942
2018-12-18T14:23:05.191Z,100948
2018-12-18T14:25:34.019Z,100932
2018-12-18T14:28:03.611Z,100933
2018-12-18T14:30:33.197Z,100943
2018-12-18T14:33:02.029Z,100930
2018-12-18T14:35:30.863Z,100925
2018-12-18T14:37:59.699Z,100916
2018-12-18T14:40:29.272Z,100904
2018-12-18T14:42:58.121Z,100911
2018-12-18T14:45:26.966Z,100902
2018-12-18T14:47:55.824Z,100899
2018-12-18T14:50:24.648Z,100902
2018-12-18T14:52:54.237Z,100898
2018-12-18T14:55:23.078Z,100896
2018-12-18T14:57:51.942Z,100895
2018-12-18T15:00:20.800Z,100895
2018-12-18T15:02:49.640Z,100889
2018-12-18T15:05:18.484Z,100892
2018-12-18T15:07:47.332Z,100880
2018-12-18T15:10:16.174Z,100883
2018-12-18T15:12:45.062Z,100872
2018-12-18T15:15:13.912Z,100876
2018-12-18T15:17:42.752Z,100875
2018-12-18T15:20:11.620Z,100862
2018-12-18T15:22:40.446Z,100868
2018-12-18T15:25:09.300Z,100869
2018-12-18T15:27:38.145Z,100876
2018-12-18T15:30:06.991Z,100860
2018-12-18T15:32:35.843Z,100865
2018-12-18T15:35:04.692Z,100860
2018-12-18T15:37:33.536Z,100851
2018-12-18T15:40:02.370Z,100856
2018-12-18T15:42:31.212Z,100850
2018-12-18T15:45:00.032Z,100848
2018-12-18T15:47:28.878Z,100846
2018-12-18T15:49:57.737Z,100835
2018-12-18T15:52:26.580Z,100846
2018-12-18T15:54:55.433Z,100839
2018-12-18T15:57:24.278Z,100849
2018-12-18T15:59:53.116Z,100844
2018-12-18T16:02:24.329Z,100826
2018-12-18T16:04:51.532Z,100834
2018-12-18T16:07:20.362Z,100844
2018-12-18T16:09:49.211Z,100844
2018-12-18T16:12:18.080Z,100823
2018-12-18T16:14:46.928Z,100823
2018-12-18T16:17:15.780Z,100817
2018-12-18T16:19:44.630Z,100821
2018-12-18T16:22:13.480Z,100816
2018-12-18T16:24:43.072Z,100818
2018-12-18T16:27:11.910Z,100820
2018-12-18T16:29:40.746Z,100827
2018-12-18T16:32:09.587Z,100819
2018-12-18T16:34:38.419Z,100806
2018-12-18T16:37:07.267Z,100803
2018-12-18T16:39:36.162Z,100801
2018-12-18T16:42:04.959Z,100806
2018-12-18T16:44:33.811Z,100807
2018-12-18T16:47:02.655Z,100801
2018-12-18T16:49:31.493Z,100807
2018-12-18T16:52:00.342Z,100812
2018-12-18T16:54:29.176Z,100809
2018-12-18T16:56:58.006Z,100804
2018-12-18T16:59:26.859Z,100805
2018-12-18T17:01:55.714Z,100818
2018-12-18T17:04:24.550Z,100819
2018-12-18T17:06:53.391Z,100819
2018-12-18T17:09:22.231Z,100824
2018-12-18T17:11:51.063Z,100813
2018-12-18T17:14:19.909Z,100811
2018-12-18T17:16:48.751Z,100811
2018-12-18T17:19:18.814Z,100817
2018-12-18T17:21:46.423Z,100815
2018-12-18T17:24:15.277Z,100816
2018-12-18T17:26:44.107Z,100818
2018-12-18T17:29:12.947Z,100819
2018-12-18T17:31:41.791Z,100819
2018-12-18T17:34:11.445Z,100821
2018-12-18T17:36:40.210Z,100816
2018-12-18T17:39:09.065Z,100822
2018-12-18T17:41:37.889Z,100820
2018-12-18T17:44:06.777Z,100819
2018-12-18T17:46:36.154Z,100823
2018-12-18T17:49:05.006Z,100815
2018-12-18T17:51:33.843Z,100821
2018-12-18T17:54:03.413Z,100839
2018-12-18T17:56:32.253Z,100829
2018-12-18T17:59:01.103Z,100818
2018-12-18T18:01:29.946Z,100812
2018-12-18T18:03:58.867Z,100809
2018-12-18T18:06:27.689Z,100815
2018-12-18T18:08:57.258Z,100807
2018-12-18T18:11:26.106Z,100803
2018-12-18T18:13:54.944Z,100797
2018-12-18T18:16:23.773Z,100796
2018-12-18T18:18:52.599Z,100789
2018-12-18T18:21:21.456Z,100781
2018-12-18T18:23:50.312Z,100763
2018-12-18T18:26:19.895Z,100762
2018-12-18T18:28:48.738Z,100757
2018-12-18T18:31:17.591Z,100766
2018-12-18T18:33:46.435Z,100761
2018-12-18T18:36:15.314Z,100760
2018-12-18T18:38:44.160Z,100751
2018-12-18T18:41:12.996Z,100744
2018-12-18T18:43:41.824Z,100739
2018-12-18T18:46:10.659Z,100742
2018-12-18T18:48:39.507Z,100736
2018-12-18T18:51:08.960Z,100736
2018-12-18T18:53:37.799Z,100741
2018-12-18T18:56:07.374Z,100733
2018-12-18T18:58:36.209Z,100731
2018-12-18T19:01:05.065Z,100743
2018-12-18T19:03:33.947Z,100762
2018-12-18T19:06:02.804Z,100752
2018-12-18T19:08:31.640Z,100735
2018-12-18T19:11:00.466Z,100730
2018-12-18T19:13:30.049Z,100726
2018-12-18T19:15:59.673Z,100718
2018-12-18T19:18:28.473Z,100707
2018-12-18T19:20:58.049Z,100691
2018-12-18T19:23:26.878Z,100695
2018-12-18T19:25:55.717Z,100679
2018-12-18T19:28:24.538Z,100687
2018-12-18T19:30:54.185Z,100688
2018-12-18T19:33:22.998Z,100691
2018-12-18T19:35:51.832Z,100684
2018-12-18T19:38:21.437Z,100677
2018-12-18T19:40:50.300Z,100679
2018-12-18T19:43:19.185Z,100685
2018-12-18T19:45:48.007Z,100674
2018-12-18T19:48:17.581Z,100692
2018-12-18T19:50:46.441Z,100716
2018-12-18T19:53:15.274Z,100711
2018-12-18T19:55:44.147Z,100709
2018-12-18T19:58:12.960Z,100717
2018-12-18T20:00:42.543Z,100712
2018-12-18T20:03:11.410Z,100715
2018-12-18T20:05:40.252Z,100713
2018-12-18T20:08:10.254Z,100702
2018-12-18T20:10:38.667Z,100703
2018-12-18T20:13:07.522Z,100695
2018-12-18T20:15:36.359Z,100689
2018-12-18T20:18:05.203Z,100692
2018-12-18T20:20:34.034Z,100689
2018-12-18T20:23:02.889Z,100700
2018-12-18T20:25:32.461Z,100707
2018-12-18T20:28:01.309Z,100695
2018-12-18T20:30:30.154Z,100690
2018-12-18T20:32:59.002Z,100687
2018-12-18T20:35:27.842Z,100680
2018-12-18T20:37:56.684Z,100678
2018-12-18T20:40:25.521Z,100665
2018-12-18T20:42:55.096Z,100662
2018-12-18T20:45:23.942Z,100661
2018-12-18T20:47:52.820Z,100665
2018-12-18T20:50:22.382Z,100653
2018-12-18T20:52:51.221Z,100676
2018-12-18T20:55:20.062Z,100676
2018-12-18T20:57:48.901Z,100665
2018-12-18T21:00:17.754Z,100661
2018-12-18T21:02:46.597Z,100658
2018-12-18T21:05:15.429Z,100663
2018-12-18T21:07:44.264Z,100656
2018-12-18T21:10:13.118Z,100657
2018-12-18T21:12:42.698Z,100655
2018-12-18T21:15:11.545Z,100653
2018-12-18T21:17:41.762Z,100651
2018-12-18T21:20:10.139Z,100648
2018-12-18T21:22:39.272Z,100637
2018-12-18T21:25:07.995Z,100650
2018-12-18T21:27:36.842Z,100642
2018-12-18T21:30:05.731Z,100639
2018-12-18T21:32:34.535Z,100643
2018-12-18T21:35:03.384Z,100628
2018-12-18T21:37:32.221Z,100626
2018-12-18T21:40:01.058Z,100618
2018-12-18T21:42:29.892Z,100616
2018-12-18T21:44:58.723Z,100612
2018-12-18T21:47:28.302Z,100607
2018-12-18T21:49:57.152Z,100602
2018-12-18T21:52:26.010Z,100588
2018-12-18T21:54:55.592Z,100592
2018-12-18T21:57:24.442Z,100589
2018-12-18T21:59:53.274Z,100593
2018-12-18T22:02:22.130Z,100591
2018-12-18T22:04:50.990Z,100593
2018-12-18T22:07:19.832Z,100593
2018-12-18T22:09:48.704Z,100594
2018-12-18T22:12:17.567Z,100588
2018-12-18T22:14:46.401Z,100590
2018-12-18T22:17:15.248Z,100594
2018-12-18T22:19:44.110Z,100606
2018-12-18T22:22:12.939Z,100595
2018-12-18T22:24:41.770Z,100592
2018-12-18T22:27:11.350Z,100598
2018-12-18T22:29:40.195Z,100593
2018-12-18T22:32:09.052Z,100571
2018-12-18T22:34:38.651Z,100572
2018-12-18T22:37:07.493Z,100566
2018-12-18T22:39:36.344Z,100576
2018-12-18T22:42:05.210Z,100575
2018-12-18T22:44:34.062Z,100579
2018-12-18T22:47:02.893Z,100582
2018-12-18T22:49:32.323Z,100583
2018-12-18T22:52:01.903Z,100577
2018-12-18T22:54:31.493Z,100577
2018-12-18T22:57:00.328Z,100581
2018-12-18T22:59:29.915Z,100571
2018-12-18T23:01:58.753Z,100568
2018-12-18T23:04:27.591Z,100560
2018-12-18T23:06:56.435Z,100559
2018-12-18T23:09:25.259Z,100556
2018-12-18T23:11:54.125Z,100566
2018-12-18T23:14:22.957Z,100554
2018-12-18T23:16:52.548Z,100555
2018-12-18T23:19:21.387Z,100557
2018-12-18T23:21:50.243Z,100549
2018-12-18T23:24:19.807Z,100551
2018-12-18T23:26:48.663Z,100557
2018-12-18T23:29:17.489Z,100554
2018-12-18T23:31:46.322Z,100555
2018-12-18T23:34:15.895Z,100543
2018-12-18T23:36:44.737Z,100540
2018-12-18T23:39:13.592Z,100554
2018-12-18T23:41:42.447Z,100553
2018-12-18T23:44:11.267Z,100563
2018-12-18T23:46:40.109Z,100571
2018-12-18T23:49:08.951Z,100565
2018-12-18T23:51:37.791Z,100560
2018-12-18T23:54:06.665Z,100555
2018-12-18T23:56:36.228Z,100554
2018-12-18T23:59:05.077Z,100550
